Bissell, Illinois
Current Conditions -  °F | °C
As of 7:52 AM on Friday 31 Oct 2014 (Local Time) from KSPI Reporting Station
Broken Clouds Broken Clouds  
Wind Chill: 32°   Ceiling: 5000
Heat Index: 41°   Visibility: 10mi
Dew Point: 26°   Wind: 18mph
Humidity: 55%   Direction: 330°NNW
Pressure: 30.2"   Gusts: 24mph
Location:  39.854°N, 89.6295°W
Report Text: KSPI 311252Z 33016G21KT 10SM BKN050 05/M03 A3020 RMK AO2 PK WND 34029/1159 SLP228 T00501033
Loading
Personal Weather Stations






























Interactive Weather Map
Tropical Storm Tracking
New forecast layout! Learn more

10-Day Weather Forecast

Advertisements
Track Severe Weather on mobile